Time;durP1;ratioP1;P1;durP2;ratioP2;P2;SDS_P1;SDS_P2;PMS_P1;PMS_P2;Temp;Humidity;BMP_temperature;BMP_pressure;BME280_temperature;BME280_humidity;BME280_pressure;Samples;Min_cycle;Max_cycle;Signal;HPM_P1;HPM_P2
2023/01/04 00:00:57;;;;;;;0.25;0.25;;;7.90;99.90;;;;;;6227830;22;20000;-96
2023/01/04 00:03:41;;;;;;;0.00;0.00;;;7.90;99.90;;;;;;6276924;22;20004;-96
2023/01/04 00:06:36;;;;;;;0.00;0.00;;;7.90;99.90;;;;;;6188483;23;20005;-96
2023/01/04 00:09:35;;;;;;;;;;;;;;;;;;;;;
2023/01/04 00:12:15;;;;;;;;;;;;;;;;;;;;;
2023/01/04 00:15:31;;;;;;;0.00;0.00;;;7.90;99.90;;;;;;6232965;23;20021;-96
2023/01/04 00:18:35;;;;;;;;;;;;;;;;;;;;;
2023/01/04 00:21:28;;;;;;;0.10;0.00;;;7.90;99.90;;;;;;6223036;23;20073;-96
2023/01/04 00:24:09;;;;;;;1.95;0.65;;;7.90;99.90;;;;;;6201030;23;20099;-96
2023/01/04 00:26:40;;;;;;;0.00;0.00;;;7.90;99.90;;;;;;6210811;23;20012;-96
2023/01/04 00:29:38;;;;;;;;;;;;;;;;;;;;;
2023/01/04 00:32:39;;;;;;;0.05;0.05;;;7.90;99.90;;;;;;6236208;23;20019;-96
2023/01/04 00:35:27;;;;;;;0.00;0.00;;;7.90;99.90;;;;;;6207074;23;20334;-96
2023/01/04 00:38:24;;;;;;;0.00;0.00;;;7.90;99.90;;;;;;6165170;23;20016;-96
2023/01/04 00:44:43;;;;;;;0.00;0.00;;;7.90;99.90;;;;;;6123512;23;20033;-96
2023/01/04 00:47:34;;;;;;;0.35;0.00;;;7.90;99.90;;;;;;6237837;23;20040;-96
2023/01/04 00:53:26;;;;;;;;;;;;;;;;;;;;;
2023/01/04 00:56:13;;;;;;;;;;;;;;;;;;;;;
2023/01/04 00:59:07;;;;;;;;;;;;;;;;;;;;;
2023/01/04 01:02:26;;;;;;;;;;;;;;;;;;;;;
2023/01/04 01:05:17;;;;;;;0.00;0.00;;;7.80;99.90;;;;;;6230552;22;20503;-95
2023/01/04 01:07:46;;;;;;;1.25;0.70;;;7.70;99.90;;;;;;6234818;22;20015;-95
2023/01/04 01:10:12;;;;;;;0.00;0.00;;;7.70;99.90;;;;;;6252336;22;20020;-92
2023/01/04 01:12:45;;;;;;;0.00;0.00;;;7.70;99.90;;;;;;6252204;22;20035;-92
2023/01/04 01:15:11;;;;;;;0.00;0.00;;;7.70;99.90;;;;;;6252031;22;20077;-94
2023/01/04 01:17:37;;;;;;;0.00;0.00;;;7.80;99.90;;;;;;6204251;22;20101;-94
2023/01/04 01:20:07;;;;;;;0.00;0.00;;;7.80;99.90;;;;;;6204406;22;20025;-92
2023/01/04 01:22:34;;;;;;;0.00;0.00;;;7.70;99.90;;;;;;6252471;22;20019;-89
2023/01/04 01:25:00;;;;;;;0.10;0.05;;;7.80;99.90;;;;;;6251634;22;20086;-87
2023/01/04 01:27:27;;;;;;;0.00;0.00;;;7.70;99.90;;;;;;6202018;22;20505;-90
2023/01/04 01:29:53;;;;;;;0.00;0.00;;;7.70;99.90;;;;;;6227935;22;20020;-89
2023/01/04 01:32:18;;;;;;;0.00;0.00;;;7.80;99.90;;;;;;6227174;22;20008;-91
2023/01/04 01:34:44;;;;;;;0.00;0.00;;;7.70;99.90;;;;;;6252134;22;20015;-90
2023/01/04 01:37:10;;;;;;;0.00;0.00;;;7.70;99.90;;;;;;6252374;22;20020;-91
2023/01/04 01:39:35;;;;;;;0.00;0.00;;;7.70;99.90;;;;;;6202146;22;20509;-91
2023/01/04 01:42:03;;;;;;;0.00;0.00;;;7.70;99.90;;;;;;6252059;22;20022;-92
2023/01/04 01:44:41;;;;;;;0.00;0.00;;;7.80;99.90;;;;;;6201850;22;20004;-88
2023/01/04 01:47:38;;;;;;;0.17;0.05;;;7.70;99.90;;;;;;6251321;22;20022;-87
2023/01/04 01:50:16;;;;;;;0.25;0.10;;;7.80;99.90;;;;;;6209968;22;20099;-89
2023/01/04 01:52:42;;;;;;;0.00;0.00;;;7.80;99.90;;;;;;6251677;22;20012;-89
2023/01/04 01:55:11;;;;;;;0.00;0.00;;;7.80;99.90;;;;;;6251087;22;20016;-90
2023/01/04 01:57:37;;;;;;;0.00;0.00;;;7.80;99.90;;;;;;6226170;22;20027;-91
2023/01/04 02:00:11;;;;;;;0.00;0.00;;;7.90;99.90;;;;;;6252099;22;20022;-91
2023/01/04 02:03:04;;;;;;;0.00;0.00;;;7.80;99.90;;;;;;6227042;22;20019;-90
2023/01/04 02:05:32;;;;;;;5.55;0.77;;;7.80;99.90;;;;;;6210394;22;20028;-89
2023/01/04 02:07:59;;;;;;;0.17;0.17;;;7.80;99.90;;;;;;6251478;22;20106;-90
2023/01/04 02:10:25;;;;;;;0.10;0.10;;;7.80;99.90;;;;;;6226879;22;20015;-90
2023/01/04 02:12:54;;;;;;;0.00;0.00;;;7.90;99.90;;;;;;6252750;22;20087;-90
2023/01/04 02:15:25;;;;;;;0.15;0.15;;;7.90;99.90;;;;;;6226487;22;20016;-89
2023/01/04 02:18:02;;;;;;;0.40;0.28;;;7.90;99.90;;;;;;6226093;22;20023;-91
2023/01/04 02:20:41;;;;;;;0.00;0.00;;;7.90;99.90;;;;;;6226068;22;20019;-90
2023/01/04 02:23:41;;;;;;;0.03;0.00;;;7.90;99.90;;;;;;6227118;22;20015;-90
2023/01/04 02:26:22;;;;;;;0.00;0.00;;;7.90;99.90;;;;;;6251380;22;20090;-90
2023/01/04 02:29:18;;;;;;;0.00;0.00;;;7.90;99.90;;;;;;6226984;22;20016;-90
2023/01/04 02:32:00;;;;;;;0.10;0.10;;;8.00;99.90;;;;;;6252085;22;20067;-90
2023/01/04 02:35:01;;;;;;;0.05;0.05;;;8.00;99.90;;;;;;6227394;22;20015;-90
2023/01/04 02:37:53;;;;;;;0.00;0.00;;;8.00;99.90;;;;;;6226202;22;20015;-89
2023/01/04 02:40:39;;;;;;;0.00;0.00;;;8.00;99.90;;;;;;6227174;22;20019;-89
2023/01/04 02:46:14;;;;;;;0.00;0.00;;;8.00;99.90;;;;;;6253902;22;20098;-87
2023/01/04 02:51:37;;;;;;;0.00;0.00;;;8.10;99.90;;;;;;6253881;22;20024;-90
2023/01/04 02:54:11;;;;;;;0.00;0.00;;;8.10;99.90;;;;;;6228118;22;20019;-88
2023/01/04 02:56:57;;;;;;;0.00;0.00;;;8.20;99.90;;;;;;6254027;22;20077;-90
2023/01/04 02:59:41;;;;;;;0.00;0.00;;;8.10;99.90;;;;;;6259573;22;20011;-87
2023/01/04 03:08:40;;;;;;;0.00;0.00;;;8.30;99.90;;;;;;6253499;22;20016;-85
2023/01/04 03:14:04;;;;;;;0.00;0.00;;;8.40;99.90;;;;;;6252206;22;20023;-88
2023/01/04 03:16:32;;;;;;;0.00;0.00;;;8.40;99.90;;;;;;6253085;22;20073;-87
2023/01/04 03:19:08;;;;;;;0.00;0.00;;;8.40;99.90;;;;;;6203609;22;20751;-90
2023/01/04 03:21:35;;;;;;;0.65;0.00;;;8.40;99.90;;;;;;6253299;22;20094;-89
2023/01/04 03:36:00;;;;;;;0.00;0.00;;;8.60;99.90;;;;;;6246026;22;20023;-90
2023/01/04 03:48:32;;;;;;;0.00;0.00;;;8.80;99.90;;;;;;6252976;22;20073;-90
2023/01/04 03:51:23;;;;;;;0.00;0.00;;;8.80;99.90;;;;;;6253006;22;20047;-90
2023/01/04 03:53:55;;;;;;;0.00;0.00;;;8.90;99.90;;;;;;6236785;22;20060;-89
2023/01/04 03:56:22;;;;;;;0.00;0.00;;;8.90;99.90;;;;;;6251105;22;20026;-88
2023/01/04 03:58:50;;;;;;;0.00;0.00;;;8.90;99.90;;;;;;6252333;22;20016;-90
2023/01/04 04:01:18;;;;;;;0.00;0.00;;;8.90;99.90;;;;;;6227089;22;20055;-90
2023/01/04 04:09:14;;;;;;;0.00;0.00;;;9.00;99.90;;;;;;6253129;22;20024;-90
2023/01/04 04:11:40;;;;;;;0.00;0.00;;;9.00;99.90;;;;;;6178025;22;20026;-89
2023/01/04 04:14:06;;;;;;;0.00;0.00;;;9.00;99.90;;;;;;6227534;22;20051;-89
2023/01/04 04:16:32;;;;;;;0.00;0.00;;;9.00;99.90;;;;;;6227226;22;20022;-88
2023/01/04 04:18:57;;;;;;;0.00;0.00;;;9.00;99.90;;;;;;6202154;22;20098;-89
2023/01/04 04:21:23;;;;;;;0.00;0.00;;;9.00;99.90;;;;;;6252823;22;20342;-89
2023/01/04 04:23:53;;;;;;;0.00;0.00;;;9.10;99.90;;;;;;6227109;22;20020;-88
2023/01/04 04:26:18;;;;;;;0.00;0.00;;;9.10;99.90;;;;;;6226680;22;20015;-92
2023/01/04 04:28:45;;;;;;;0.00;0.00;;;9.10;99.90;;;;;;6227237;22;20025;-90
2023/01/04 04:31:11;;;;;;;0.00;0.00;;;9.10;99.90;;;;;;6227111;22;20029;-92
2023/01/04 04:33:37;;;;;;;0.00;0.00;;;9.10;99.90;;;;;;6227504;22;20015;-90
2023/01/04 04:36:03;;;;;;;0.00;0.00;;;9.20;99.90;;;;;;6226485;22;20019;-88
2023/01/04 04:38:29;;;;;;;0.00;0.00;;;9.20;99.90;;;;;;6226147;22;20069;-89
2023/01/04 04:43:39;;;;;;;0.00;0.00;;;9.20;99.90;;;;;;6251880;22;20101;-87
2023/01/04 04:46:04;;;;;;;0.00;0.00;;;9.30;99.90;;;;;;6201961;22;20438;-88
2023/01/04 04:48:30;;;;;;;0.00;0.00;;;9.30;99.90;;;;;;6226591;22;20024;-87
2023/01/04 04:50:56;;;;;;;0.00;0.00;;;9.30;99.90;;;;;;6226586;22;20099;-86
2023/01/04 04:53:22;;;;;;;0.00;0.00;;;9.30;99.90;;;;;;6251282;22;20054;-90
2023/01/04 04:55:50;;;;;;;0.00;0.00;;;9.30;99.90;;;;;;6225410;22;20112;-89
2023/01/04 04:58:16;;;;;;;0.00;0.00;;;9.40;99.90;;;;;;6253167;22;20012;-91
2023/01/04 05:00:46;;;;;;;0.00;0.00;;;9.40;99.90;;;;;;6227357;22;20020;-90
2023/01/04 05:03:11;;;;;;;0.00;0.00;;;9.40;99.90;;;;;;6227088;22;20055;-89
2023/01/04 05:05:37;;;;;;;0.00;0.00;;;9.50;99.90;;;;;;6252693;22;20023;-90
2023/01/04 05:08:03;;;;;;;0.00;0.00;;;9.40;99.90;;;;;;6203373;22;20023;-90
2023/01/04 05:10:31;;;;;;;0.00;0.00;;;9.50;99.90;;;;;;6228397;22;20019;-90
2023/01/04 05:13:00;;;;;;;0.00;0.00;;;9.50;99.90;;;;;;6250829;22;20004;-89
2023/01/04 05:15:28;;;;;;;0.00;0.00;;;9.50;99.90;;;;;;6252326;22;20011;-90
2023/01/04 05:17:56;;;;;;;0.00;0.00;;;9.50;99.90;;;;;;6230707;22;20153;-90
2023/01/04 05:20:22;;;;;;;0.00;0.00;;;9.50;99.90;;;;;;6205801;22;20054;-89
2023/01/04 05:22:48;;;;;;;0.00;0.00;;;9.60;99.90;;;;;;6202340;22;20012;-89
2023/01/04 05:25:16;;;;;;;0.00;0.00;;;9.60;99.90;;;;;;6201134;22;20020;-89
2023/01/04 05:27:43;;;;;;;0.00;0.00;;;9.60;99.90;;;;;;6225915;22;20019;-92
2023/01/04 05:33:00;;;;;;;0.00;0.00;;;9.60;99.90;;;;;;6251910;22;20042;-90
2023/01/04 05:35:26;;;;;;;0.00;0.00;;;9.70;99.90;;;;;;6251934;22;20022;-90
2023/01/04 05:37:52;;;;;;;0.00;0.00;;;9.70;99.90;;;;;;6226638;22;20102;-89
2023/01/04 05:40:21;;;;;;;0.00;0.00;;;9.80;99.90;;;;;;6226281;22;20506;-90
2023/01/04 05:42:48;;;;;;;0.10;0.00;;;9.80;99.90;;;;;;6251498;22;20018;-90
2023/01/04 05:45:18;;;;;;;0.10;0.10;;;9.90;99.90;;;;;;6238693;22;20019;-90
2023/01/04 05:47:47;;;;;;;0.10;0.00;;;9.90;99.90;;;;;;6229275;22;20020;-91
2023/01/04 05:50:18;;;;;;;0.00;0.00;;;9.90;99.90;;;;;;6227450;22;20077;-93
2023/01/04 05:52:49;;;;;;;0.10;0.08;;;10.00;99.90;;;;;;6227285;22;20449;-93
2023/01/04 05:55:23;;;;;;;0.10;0.10;;;9.90;99.90;;;;;;6227772;22;20073;-94
2023/01/04 05:57:52;;;;;;;0.10;0.00;;;10.00;99.90;;;;;;6229097;22;20042;-94
2023/01/04 06:00:23;;;;;;;0.00;0.00;;;10.00;99.90;;;;;;6228445;22;20451;-95
2023/01/04 06:06:24;;;;;;;0.00;0.00;;;10.10;99.90;;;;;;6137289;23;20108;-96
2023/01/04 06:09:16;;;;;;;0.00;0.00;;;10.00;99.90;;;;;;6186639;22;20021;-96
2023/01/04 06:12:00;;;;;;;0.00;0.00;;;10.00;99.90;;;;;;6186093;23;20004;-96
2023/01/04 06:14:34;;;;;;;0.00;0.00;;;10.10;99.90;;;;;;6197119;23;20024;-96
2023/01/04 06:17:05;;;;;;;0.00;0.00;;;10.20;99.90;;;;;;6195044;23;20072;-94
2023/01/04 06:19:33;;;;;;;0.00;0.00;;;10.20;99.90;;;;;;6193966;23;20030;-95
2023/01/04 06:21:59;;;;;;;0.00;0.00;;;10.20;99.90;;;;;;6194138;23;20028;-90
2023/01/04 06:24:29;;;;;;;0.00;0.00;;;10.20;99.90;;;;;;6192820;23;20020;-90
2023/01/04 06:26:55;;;;;;;0.10;0.00;;;10.20;99.90;;;;;;6217495;23;20016;-90
2023/01/04 06:29:21;;;;;;;0.00;0.00;;;10.20;99.90;;;;;;6193282;23;20042;-91
2023/01/04 06:31:47;;;;;;;0.00;0.00;;;10.20;99.90;;;;;;6194258;23;20070;-89
2023/01/04 06:34:13;;;;;;;0.00;0.00;;;10.20;99.90;;;;;;6168177;23;20024;-89
2023/01/04 06:36:39;;;;;;;0.00;0.00;;;10.20;99.90;;;;;;6192765;23;20021;-88
2023/01/04 06:39:08;;;;;;;0.00;0.00;;;10.20;99.90;;;;;;6192174;23;20055;-88
2023/01/04 06:41:34;;;;;;;0.00;0.00;;;10.20;99.90;;;;;;6192817;23;20516;-88
2023/01/04 06:44:03;;;;;;;0.00;0.00;;;10.30;99.90;;;;;;6169598;23;20024;-87
2023/01/04 06:46:29;;;;;;;0.00;0.00;;;10.20;99.90;;;;;;6192496;23;20023;-87
2023/01/04 06:48:55;;;;;;;0.00;0.00;;;10.20;99.90;;;;;;6217482;23;20342;-91
2023/01/04 06:51:21;;;;;;;0.20;0.00;;;10.20;99.90;;;;;;6217202;23;20023;-87
2023/01/04 06:53:47;;;;;;;0.00;0.00;;;10.20;99.90;;;;;;6191715;23;20013;-88
2023/01/04 06:56:13;;;;;;;0.00;0.00;;;10.30;99.90;;;;;;6216804;23;20016;-86
2023/01/04 06:58:38;;;;;;;0.55;0.00;;;10.30;99.90;;;;;;6216621;23;20021;-87
2023/01/04 07:01:05;;;;;;;0.00;0.00;;;10.30;99.90;;;;;;6167331;23;20016;-86
2023/01/04 07:03:30;;;;;;;0.00;0.00;;;10.30;99.90;;;;;;6143039;23;20346;-87
2023/01/04 07:05:56;;;;;;;0.00;0.00;;;10.30;99.90;;;;;;6244164;23;20020;-85
2023/01/04 07:08:22;;;;;;;0.00;0.00;;;10.30;99.90;;;;;;6221941;23;20016;-89
2023/01/04 07:10:48;;;;;;;0.00;0.00;;;10.30;99.90;;;;;;6198073;23;20016;-91
2023/01/04 07:13:16;;;;;;;0.00;0.00;;;10.30;99.90;;;;;;6222418;23;20114;-90
2023/01/04 07:15:42;;;;;;;0.00;0.00;;;10.40;99.90;;;;;;6222965;23;20035;-88
2023/01/04 07:18:10;;;;;;;0.00;0.00;;;10.40;99.90;;;;;;6222951;23;20447;-89
2023/01/04 07:20:37;;;;;;;0.10;0.10;;;10.40;99.90;;;;;;6197533;23;20020;-90
2023/01/04 07:23:04;;;;;;;0.00;0.00;;;10.40;99.90;;;;;;6222967;23;20012;-88
2023/01/04 07:25:30;;;;;;;0.00;0.00;;;10.40;99.90;;;;;;6248417;23;20059;-87
2023/01/04 07:27:56;;;;;;;0.00;0.00;;;10.40;99.90;;;;;;6197823;23;20016;-90
2023/01/04 07:30:22;;;;;;;0.00;0.00;;;10.40;99.90;;;;;;6197770;23;20016;-90
2023/01/04 07:32:53;;;;;;;0.00;0.00;;;10.40;99.90;;;;;;6247787;23;20016;-91
2023/01/04 07:35:19;;;;;;;0.00;0.00;;;10.40;99.90;;;;;;6248254;23;20020;-90
2023/01/04 07:37:47;;;;;;;0.00;0.00;;;10.40;99.90;;;;;;6222282;23;20335;-90
2023/01/04 07:40:13;;;;;;;0.00;0.00;;;10.40;99.90;;;;;;6196950;23;20016;-90
2023/01/04 07:42:41;;;;;;;1.13;0.03;;;10.40;99.90;;;;;;6222304;23;20051;-89
2023/01/04 07:45:07;;;;;;;0.03;0.03;;;10.50;99.90;;;;;;6223867;23;20022;-90
2023/01/04 07:47:47;;;;;;;0.00;0.00;;;10.50;99.90;;;;;;6197842;23;20016;-91
2023/01/04 07:50:15;;;;;;;0.05;0.00;;;10.50;99.90;;;;;;6222667;23;20027;-90
2023/01/04 07:52:46;;;;;;;0.00;0.00;;;10.50;99.90;;;;;;6222415;23;20024;-90
2023/01/04 07:55:12;;;;;;;0.00;0.00;;;10.50;99.90;;;;;;6222060;23;20433;-90
2023/01/04 07:57:38;;;;;;;0.00;0.00;;;10.50;99.90;;;;;;6220397;23;20062;-87
2023/01/04 08:00:09;;;;;;;0.00;0.00;;;10.50;99.90;;;;;;6247296;23;20016;-89
2023/01/04 08:02:37;;;;;;;0.00;0.00;;;10.50;99.90;;;;;;6221901;23;20016;-86
2023/01/04 08:05:03;;;;;;;0.00;0.00;;;10.50;99.90;;;;;;6221617;23;20016;-85
2023/01/04 08:07:31;;;;;;;2.63;0.85;;;10.50;99.90;;;;;;6247737;23;20058;-87
2023/01/04 08:09:57;;;;;;;0.10;0.10;;;10.50;99.90;;;;;;6246784;23;20016;-86
2023/01/04 08:12:26;;;;;;;0.00;0.00;;;10.60;99.90;;;;;;6172354;23;20067;-88
2023/01/04 08:14:52;;;;;;;0.00;0.00;;;10.60;99.90;;;;;;6220821;23;20027;-86
2023/01/04 08:17:20;;;;;;;0.10;0.10;;;10.60;99.90;;;;;;6221200;23;20016;-89
2023/01/04 08:19:46;;;;;;;0.00;0.00;;;10.60;99.90;;;;;;6221967;23;20115;-86
2023/01/04 08:22:13;;;;;;;0.00;0.00;;;10.60;99.90;;;;;;6221418;23;20058;-86
2023/01/04 08:24:40;;;;;;;0.00;0.00;;;10.60;99.90;;;;;;6221858;23;20016;-85
2023/01/04 08:27:07;;;;;;;0.00;0.00;;;10.70;99.90;;;;;;6220398;23;20050;-87
2023/01/04 08:29:39;;;;;;;0.00;0.00;;;10.70;99.90;;;;;;6247884;23;20039;-88
2023/01/04 08:32:09;;;;;;;0.00;0.00;;;10.70;99.90;;;;;;6221449;23;20038;-89
2023/01/04 08:34:35;;;;;;;0.00;0.00;;;10.70;99.90;;;;;;6247424;23;20099;-88
2023/01/04 08:37:01;;;;;;;0.00;0.00;;;10.70;99.90;;;;;;6222678;23;20020;-94
2023/01/04 08:39:34;;;;;;;0.22;0.22;;;10.80;99.90;;;;;;6247947;23;20019;-93
2023/01/04 08:41:59;;;;;;;0.00;0.00;;;10.80;99.90;;;;;;6247885;23;20012;-91
2023/01/04 08:44:26;;;;;;;0.00;0.00;;;10.80;99.90;;;;;;6247096;23;20058;-92
2023/01/04 08:46:55;;;;;;;0.00;0.00;;;10.80;99.90;;;;;;6247093;23;20071;-93
2023/01/04 08:49:22;;;;;;;0.00;0.00;;;10.90;99.90;;;;;;6222139;23;20102;-92
2023/01/04 08:51:48;;;;;;;0.00;0.00;;;10.90;99.90;;;;;;6247543;23;20024;-91
2023/01/04 08:54:17;;;;;;;0.05;0.00;;;10.90;99.90;;;;;;6223947;23;20335;-94
2023/01/04 08:56:43;;;;;;;1.25;0.70;;;10.90;99.90;;;;;;6223608;23;20099;-93
2023/01/04 08:59:12;;;;;;;0.00;0.00;;;10.90;99.90;;;;;;6223499;23;20089;-93
2023/01/04 09:01:41;;;;;;;0.00;0.00;;;10.80;99.90;;;;;;6248981;23;20016;-94
2023/01/04 09:04:07;;;;;;;0.00;0.00;;;10.90;99.90;;;;;;6253265;22;20015;-92
2023/01/04 09:06:35;;;;;;;0.00;0.00;;;10.90;99.90;;;;;;6228121;22;20081;-93
2023/01/04 09:09:04;;;;;;;0.00;0.00;;;10.90;99.90;;;;;;6228045;22;20054;-91
2023/01/04 09:11:32;;;;;;;0.03;0.00;;;10.90;99.90;;;;;;6226999;22;20023;-91
2023/01/04 09:13:59;;;;;;;0.00;0.00;;;10.90;99.90;;;;;;6252247;22;20034;-94
2023/01/04 09:16:28;;;;;;;0.03;0.00;;;11.00;99.90;;;;;;6228687;22;20054;-92
2023/01/04 09:18:55;;;;;;;0.15;0.00;;;11.00;99.90;;;;;;6227024;22;20027;-92
2023/01/04 09:21:21;;;;;;;0.00;0.00;;;11.00;99.90;;;;;;6227203;22;20059;-90
2023/01/04 09:23:48;;;;;;;0.00;0.00;;;10.90;99.90;;;;;;6227044;22;20023;-91
2023/01/04 09:26:22;;;;;;;0.00;0.00;;;11.00;99.90;;;;;;6226006;22;20020;-90
2023/01/04 09:28:49;;;;;;;0.03;0.03;;;11.00;99.90;;;;;;6226885;22;20051;-90
2023/01/04 09:31:18;;;;;;;0.00;0.00;;;11.00;99.90;;;;;;6228649;22;20019;-89
2023/01/04 09:33:44;;;;;;;0.00;0.00;;;11.00;99.90;;;;;;6228239;22;20012;-90
2023/01/04 09:36:17;;;;;;;0.00;0.00;;;11.00;99.90;;;;;;6226521;22;20019;-92
2023/01/04 09:38:43;;;;;;;0.00;0.00;;;11.00;99.90;;;;;;6232087;22;20019;-90
2023/01/04 09:41:29;;;;;;;0.00;0.00;;;11.00;99.90;;;;;;6278630;22;20018;-92
2023/01/04 09:44:01;;;;;;;0.00;0.00;;;11.00;99.90;;;;;;6263963;22;20027;-89
2023/01/04 09:46:49;;;;;;;0.00;0.00;;;11.10;99.90;;;;;;6259777;22;20015;-91
2023/01/04 09:49:29;;;;;;;0.00;0.00;;;11.10;99.90;;;;;;6232872;22;20019;-92
2023/01/04 09:52:10;;;;;;;0.10;0.00;;;11.10;99.90;;;;;;6255387;22;20015;-91
2023/01/04 09:54:54;;;;;;;0.00;0.00;;;11.10;99.90;;;;;;6229787;22;20020;-91
2023/01/04 09:57:29;;;;;;;0.00;0.00;;;11.10;99.90;;;;;;6225631;22;20015;-93
2023/01/04 10:00:13;;;;;;;0.00;0.00;;;11.10;99.90;;;;;;6227772;22;20046;-91
2023/01/04 10:02:48;;;;;;;0.00;0.00;;;11.10;99.90;;;;;;6227813;22;20068;-91
2023/01/04 10:05:20;;;;;;;0.00;0.00;;;11.10;99.90;;;;;;6253461;22;20023;-93
2023/01/04 10:07:46;;;;;;;0.00;0.00;;;11.10;99.90;;;;;;6227528;22;20024;-91
2023/01/04 10:10:30;;;;;;;0.00;0.00;;;11.10;99.90;;;;;;6228314;22;20471;-91
2023/01/04 10:13:05;;;;;;;0.75;0.00;;;11.10;99.90;;;;;;6227513;22;20019;-90
2023/01/04 10:15:55;;;;;;;0.00;0.00;;;11.20;99.90;;;;;;6227844;22;20058;-91
2023/01/04 10:18:36;;;;;;;0.00;0.00;;;11.20;99.90;;;;;;6227056;22;20027;-88
2023/01/04 10:21:41;;;;;;;0.00;0.00;;;11.20;99.90;;;;;;6227973;22;20019;-92
2023/01/04 10:24:22;;;;;;;0.00;0.00;;;11.10;99.90;;;;;;6253457;22;20521;-89
2023/01/04 10:26:49;;;;;;;0.00;0.00;;;11.20;99.90;;;;;;6224024;22;20016;-89
2023/01/04 10:29:39;;;;;;;0.00;0.00;;;11.20;99.90;;;;;;6251770;22;20018;-88
2023/01/04 10:32:17;;;;;;;0.00;0.00;;;11.20;99.90;;;;;;6223624;22;20025;-88
2023/01/04 10:34:44;;;;;;;0.00;0.00;;;11.20;99.90;;;;;;6249365;22;20012;-88
2023/01/04 10:37:32;;;;;;;0.00;0.00;;;11.20;99.90;;;;;;6252743;22;20020;-88
2023/01/04 10:40:01;;;;;;;0.00;0.00;;;11.20;99.90;;;;;;6253000;22;20012;-89
2023/01/04 10:42:36;;;;;;;0.00;0.00;;;11.20;99.90;;;;;;6227250;22;20015;-89
2023/01/04 10:45:06;;;;;;;0.00;0.00;;;11.20;99.90;;;;;;6250192;22;20311;-94
2023/01/04 10:47:48;;;;;;;0.00;0.00;;;11.30;99.90;;;;;;6226658;22;20099;-89
2023/01/04 10:50:37;;;;;;;0.00;0.00;;;11.20;99.90;;;;;;6225953;22;20027;-89
2023/01/04 10:53:24;;;;;;;0.00;0.00;;;11.30;99.90;;;;;;6226231;22;20015;-90
2023/01/04 10:56:35;;;;;;;0.00;0.00;;;11.30;99.90;;;;;;6226967;22;20192;-91
2023/01/04 10:59:06;;;;;;;0.00;0.00;;;11.30;99.90;;;;;;6207860;22;20027;-91
2023/01/04 11:01:41;;;;;;;0.00;0.00;;;11.30;99.90;;;;;;6252259;22;20023;-89
2023/01/04 11:04:18;;;;;;;0.00;0.00;;;11.30;99.90;;;;;;6227293;22;20493;-90
2023/01/04 11:06:58;;;;;;;0.00;0.00;;;11.30;99.90;;;;;;6261545;22;20022;-90
2023/01/04 11:09:52;;;;;;;0.00;0.00;;;11.30;99.90;;;;;;6228102;22;20051;-90
2023/01/04 11:12:28;;;;;;;0.00;0.00;;;11.30;99.90;;;;;;6213460;22;20446;-89
2023/01/04 11:18:16;;;;;;;0.00;0.00;;;11.40;99.90;;;;;;6228622;22;20028;-96
2023/01/04 11:21:18;;;;;;;;;;;;;;;;;;;;;
2023/01/04 11:24:30;;;;;;;0.10;0.00;;;11.40;99.90;;;;;;6254120;22;20016;-94
2023/01/04 11:27:05;;;;;;;0.00;0.00;;;11.50;99.90;;;;;;6250652;22;20077;-94
2023/01/04 11:29:57;;;;;;;;;;;;;;;;;;;;;
2023/01/04 11:33:04;;;;;;;0.00;0.00;;;11.50;99.90;;;;;;6254534;22;20438;-94
2023/01/04 11:35:41;;;;;;;0.00;0.00;;;11.40;99.90;;;;;;6251957;22;20016;-92
2023/01/04 11:39:03;;;;;;;;;;;;;;;;;;;;;
2023/01/04 11:41:32;;;;;;;0.00;0.00;;;11.60;99.90;;;;;;6253330;22;20161;-93
2023/01/04 11:44:17;;;;;;;0.00;0.00;;;11.70;99.90;;;;;;6205496;22;20073;-95
2023/01/04 11:47:03;;;;;;;0.00;0.00;;;11.70;99.90;;;;;;6230111;22;20015;-96
2023/01/04 11:49:42;;;;;;;0.22;0.22;;;11.70;99.90;;;;;;6234230;22;20015;-96
2023/01/04 11:52:46;;;;;;;0.00;0.00;;;11.70;99.90;;;;;;6208362;22;20030;-96
2023/01/04 11:55:40;;;;;;;0.00;0.00;;;11.80;99.90;;;;;;6185090;22;20020;-96
2023/01/04 11:58:13;;;;;;;0.00;0.00;;;11.80;99.90;;;;;;6206700;22;20091;-95
2023/01/04 12:01:15;;;;;;;;;;;;;;;;;;;;;
2023/01/04 12:07:15;;;;;;;;;;;;;;;;;;;;;
2023/01/04 12:10:25;;;;;;;0.00;0.00;;;11.90;99.90;;;;;;6258017;22;20019;-96
2023/01/04 12:13:21;;;;;;;;;;;;;;;;;;;;;
2023/01/04 12:16:02;;;;;;;0.00;0.00;;;11.90;99.90;;;;;;6256832;22;20018;-95
2023/01/04 12:18:38;;;;;;;0.00;0.00;;;11.90;99.90;;;;;;6228336;22;20449;-89
2023/01/04 12:21:14;;;;;;;0.00;0.00;;;11.90;99.90;;;;;;6227568;22;20383;-89
2023/01/04 12:23:40;;;;;;;1.00;0.00;;;11.90;99.90;;;;;;6252817;22;20049;-88
2023/01/04 12:26:09;;;;;;;0.00;0.00;;;11.90;99.90;;;;;;6251281;22;20020;-88
2023/01/04 12:28:41;;;;;;;0.00;0.00;;;11.90;99.90;;;;;;6226940;22;20406;-89
2023/01/04 12:31:19;;;;;;;0.00;0.00;;;11.80;99.90;;;;;;6227178;22;20457;-90
2023/01/04 12:33:46;;;;;;;0.00;0.00;;;11.80;99.90;;;;;;6253518;22;20019;-91
2023/01/04 12:36:36;;;;;;;0.00;0.00;;;11.80;99.90;;;;;;6252663;22;20023;-92
2023/01/04 12:39:13;;;;;;;0.00;0.00;;;11.80;99.90;;;;;;6210561;22;20019;-90
2023/01/04 12:41:39;;;;;;;0.00;0.00;;;11.80;99.90;;;;;;6227410;22;20099;-92
2023/01/04 12:44:38;;;;;;;0.00;0.00;;;11.90;99.90;;;;;;6226734;22;20055;-90
2023/01/04 12:50:03;;;;;;;0.00;0.00;;;11.90;99.90;;;;;;6252529;22;20039;-91
2023/01/04 12:52:31;;;;;;;0.00;0.00;;;11.80;99.90;;;;;;6228175;22;20437;-91
2023/01/04 12:55:17;;;;;;;0.00;0.00;;;11.80;99.90;;;;;;6228142;22;20027;-92
2023/01/04 12:57:50;;;;;;;5.32;1.13;;;11.80;99.90;;;;;;6226340;22;20019;-91
2023/01/04 13:00:19;;;;;;;0.00;0.00;;;11.70;99.90;;;;;;6227061;22;20023;-91
2023/01/04 13:03:10;;;;;;;0.00;0.00;;;11.70;99.90;;;;;;6226629;22;20015;-93
2023/01/04 13:05:37;;;;;;;0.00;0.00;;;11.70;99.90;;;;;;6225047;22;20020;-93
2023/01/04 13:08:12;;;;;;;0.00;0.00;;;11.70;99.90;;;;;;6227549;22;20023;-92
2023/01/04 13:10:48;;;;;;;0.00;0.00;;;11.80;99.90;;;;;;6227655;22;20019;-94
2023/01/04 13:13:49;;;;;;;0.00;0.00;;;11.80;99.90;;;;;;6252468;22;20505;-91
2023/01/04 13:16:27;;;;;;;0.00;0.00;;;11.80;99.90;;;;;;6208064;22;20069;-92
2023/01/04 13:19:11;;;;;;;0.00;0.00;;;11.80;99.90;;;;;;6253426;22;20016;-92
2023/01/04 13:21:53;;;;;;;0.00;0.00;;;11.80;99.90;;;;;;6228708;22;20015;-92
2023/01/04 13:24:34;;;;;;;;;;;;;;;;;;;;;
2023/01/04 13:27:17;;;;;;;;;;;;;;;;;;;;;
2023/01/04 13:29:44;;;;;;;0.00;0.00;;;11.80;99.90;;;;;;6250855;22;20012;-91
2023/01/04 13:32:47;;;;;;;;;;;;;;;;;;;;;
2023/01/04 13:35:33;;;;;;;0.10;0.00;;;11.80;99.90;;;;;;6207860;22;20025;-95
2023/01/04 13:38:26;;;;;;;0.35;0.35;;;11.80;99.90;;;;;;6231975;22;20019;-95
2023/01/04 13:41:33;;;;;;;0.00;0.00;;;11.80;99.90;;;;;;6218220;22;19999;-96
2023/01/04 13:44:11;;;;;;;0.00;0.00;;;11.80;99.90;;;;;;6205127;22;20016;-95
2023/01/04 13:47:18;;;;;;;;;;;;;;;;;;;;;
2023/01/04 13:49:54;;;;;;;0.20;0.13;;;11.90;99.90;;;;;;6255606;22;20020;-96
2023/01/04 13:52:42;;;;;;;0.10;0.10;;;11.90;99.90;;;;;;6204797;22;20012;-96
2023/01/04 13:55:29;;;;;;;;;;;;;;;;;;;;;
2023/01/04 13:58:25;;;;;;;2.83;0.88;;;11.90;99.90;;;;;;6236400;22;20023;-96
2023/01/04 14:01:43;;;;;;;0.00;0.00;;;11.90;99.90;;;;;;6187741;22;20028;-96
2023/01/04 14:04:34;;;;;;;;;;;;;;;;;;;;;
2023/01/04 14:07:41;;;;;;;;;;;;;;;;;;;;;
2023/01/04 14:11:03;;;;;;;3.50;0.45;;;11.90;99.90;;;;;;6247455;23;20024;-96
2023/01/04 14:14:18;;;;;;;0.00;0.00;;;11.90;99.90;;;;;;6229399;23;20054;-96
2023/01/04 14:17:13;;;;;;;;;;;;;;;;;;;;;
2023/01/04 14:20:22;;;;;;;;;;;;;;;;;;;;;
2023/01/04 14:23:18;;;;;;;2.65;1.13;;;11.90;99.90;;;;;;6257413;22;20026;-96
2023/01/04 14:26:46;;;;;;;4.47;0.40;;;11.90;99.90;;;;;;6223381;23;20027;-96
2023/01/04 14:29:32;;;;;;;0.17;0.17;;;11.90;99.90;;;;;;6200440;23;20020;-90
2023/01/04 14:32:22;;;;;;;;;;;;;;;;;;;;;
2023/01/04 14:49:26;;;;;;;;;;;;;;;;;;;;;
2023/01/04 15:03:15;;;;;;;;;;;;;;;;;;;;;
2023/01/04 15:06:11;;;;;;;0.05;0.00;;;11.90;99.90;;;;;;6162829;22;20460;-94
2023/01/04 15:08:50;;;;;;;;;;;;;;;;;;;;;
2023/01/04 15:18:18;;;;;;;3.60;0.68;;;11.90;99.90;;;;;;6244029;22;20024;-91
2023/01/04 15:21:00;;;;;;;0.15;0.10;;;11.80;99.90;;;;;;6199492;23;20016;-90
2023/01/04 15:23:28;;;;;;;0.75;0.40;;;11.80;99.90;;;;;;6223202;23;20016;-89
2023/01/04 15:25:56;;;;;;;0.63;0.40;;;11.70;99.90;;;;;;6222294;23;20016;-90
2023/01/04 15:28:25;;;;;;;0.20;0.20;;;11.70;99.90;;;;;;6222618;23;20022;-91
2023/01/04 15:30:51;;;;;;;0.00;0.00;;;11.60;99.90;;;;;;6197978;23;20016;-91
2023/01/04 15:33:18;;;;;;;9.20;1.17;;;11.60;99.90;;;;;;6198541;23;20080;-90
2023/01/04 15:35:50;;;;;;;0.43;0.25;;;11.60;99.90;;;;;;6223168;23;20066;-92
2023/01/04 15:38:26;;;;;;;;;;;;;;;;;;;;;
2023/01/04 15:44:15;;;;;;;0.10;0.10;;;11.70;99.90;;;;;;6243879;22;20019;-93
2023/01/04 15:46:44;;;;;;;0.00;0.00;;;11.70;99.90;;;;;;6179198;22;20023;-93
2023/01/04 15:52:44;;;;;;;0.00;0.00;;;11.70;99.90;;;;;;6199709;22;20027;-96
2023/01/04 15:55:53;;;;;;;0.47;0.35;;;11.70;99.90;;;;;;6244454;22;20026;-96
2023/01/04 16:02:22;;;;;;;0.00;0.00;;;11.70;99.90;;;;;;6257753;22;20019;-96